sensor_id;sensor_type;location;lat;lon;timestamp;pressure;altitude;pressure_sealevel;temperature;humidity
77574;BME280;66710;48.868;9.080;2024-02-04T00:02:23;99166.84;;;7.38;100.00
77574;BME280;66710;48.868;9.080;2024-02-04T00:04:50;99160.72;;;7.43;100.00
77574;BME280;66710;48.868;9.080;2024-02-04T00:07:16;99160.94;;;7.41;100.00
77574;BME280;66710;48.868;9.080;2024-02-04T00:09:41;99146.34;;;7.42;100.00
77574;BME280;66710;48.868;9.080;2024-02-04T00:12:09;99140.53;;;7.38;100.00
77574;BME280;66710;48.868;9.080;2024-02-04T00:14:34;99135.19;;;7.32;100.00
77574;BME280;66710;48.868;9.080;2024-02-04T00:16:59;99132.03;;;7.35;100.00
77574;BME280;66710;48.868;9.080;2024-02-04T00:19:25;99122.69;;;7.31;100.00
77574;BME280;66710;48.868;9.080;2024-02-04T00:21:50;99129.69;;;7.20;100.00
77574;BME280;66710;48.868;9.080;2024-02-04T00:24:15;99113.91;;;7.10;100.00
77574;BME280;66710;48.868;9.080;2024-02-04T00:26:41;99119.16;;;7.05;100.00
77574;BME280;66710;48.868;9.080;2024-02-04T00:29:06;99127.06;;;7.07;100.00
77574;BME280;66710;48.868;9.080;2024-02-04T00:31:31;99126.63;;;7.10;100.00
77574;BME280;66710;48.868;9.080;2024-02-04T00:33:56;99125.88;;;7.02;100.00
77574;BME280;66710;48.868;9.080;2024-02-04T00:36:22;99110.50;;;6.96;100.00
77574;BME280;66710;48.868;9.080;2024-02-04T00:38:47;99113.03;;;6.91;100.00
77574;BME280;66710;48.868;9.080;2024-02-04T00:41:12;99119.72;;;6.89;100.00
77574;BME280;66710;48.868;9.080;2024-02-04T00:43:37;99120.13;;;6.92;100.00
77574;BME280;66710;48.868;9.080;2024-02-04T00:46:03;99108.50;;;6.85;100.00
77574;BME280;66710;48.868;9.080;2024-02-04T00:48:29;99113.03;;;6.91;100.00
77574;BME280;66710;48.868;9.080;2024-02-04T00:50:54;99117.41;;;6.92;100.00
77574;BME280;66710;48.868;9.080;2024-02-04T00:53:19;99138.41;;;6.97;100.00
77574;BME280;66710;48.868;9.080;2024-02-04T00:55:45;99127.94;;;7.00;100.00
77574;BME280;66710;48.868;9.080;2024-02-04T00:58:10;99125.03;;;7.02;100.00
77574;BME280;66710;48.868;9.080;2024-02-04T01:00:35;99135.09;;;6.95;100.00
77574;BME280;66710;48.868;9.080;2024-02-04T01:03:01;99129.63;;;7.01;100.00
77574;BME280;66710;48.868;9.080;2024-02-04T01:05:26;99123.56;;;7.06;100.00
77574;BME280;66710;48.868;9.080;2024-02-04T01:07:51;99119.56;;;7.09;100.00
77574;BME280;66710;48.868;9.080;2024-02-04T01:10:16;99128.97;;;7.06;100.00
77574;BME280;66710;48.868;9.080;2024-02-04T01:12:42;99137.53;;;7.03;100.00
77574;BME280;66710;48.868;9.080;2024-02-04T01:15:07;99129.19;;;7.05;100.00
77574;BME280;66710;48.868;9.080;2024-02-04T01:17:33;99131.00;;;7.11;100.00
77574;BME280;66710;48.868;9.080;2024-02-04T01:19:59;99122.03;;;7.10;100.00
77574;BME280;66710;48.868;9.080;2024-02-04T01:22:24;99115.63;;;7.05;100.00
77574;BME280;66710;48.868;9.080;2024-02-04T01:24:52;99119.69;;;6.95;100.00
77574;BME280;66710;48.868;9.080;2024-02-04T01:27:17;99114.69;;;6.92;100.00
77574;BME280;66710;48.868;9.080;2024-02-04T01:29:42;99122.66;;;6.87;100.00
77574;BME280;66710;48.868;9.080;2024-02-04T01:32:08;99122.78;;;6.99;100.00
77574;BME280;66710;48.868;9.080;2024-02-04T01:34:33;99105.47;;;7.00;100.00
77574;BME280;66710;48.868;9.080;2024-02-04T01:36:58;99103.88;;;6.92;100.00
77574;BME280;66710;48.868;9.080;2024-02-04T01:39:23;99103.19;;;6.97;100.00
77574;BME280;66710;48.868;9.080;2024-02-04T01:41:49;99104.03;;;6.97;100.00
77574;BME280;66710;48.868;9.080;2024-02-04T01:44:15;99105.28;;;6.95;100.00
77574;BME280;66710;48.868;9.080;2024-02-04T01:46:41;99109.28;;;6.92;100.00
77574;BME280;66710;48.868;9.080;2024-02-04T01:49:08;99107.81;;;6.90;100.00
77574;BME280;66710;48.868;9.080;2024-02-04T01:51:33;99106.34;;;6.94;100.00
77574;BME280;66710;48.868;9.080;2024-02-04T01:53:58;99110.31;;;6.91;100.00
77574;BME280;66710;48.868;9.080;2024-02-04T01:56:24;99114.88;;;6.97;100.00
77574;BME280;66710;48.868;9.080;2024-02-04T01:58:49;99114.25;;;6.95;100.00
77574;BME280;66710;48.868;9.080;2024-02-04T02:01:15;99114.66;;;6.99;100.00
77574;BME280;66710;48.868;9.080;2024-02-04T02:03:41;99112.06;;;7.04;100.00
77574;BME280;66710;48.868;9.080;2024-02-04T02:06:06;99111.47;;;7.02;100.00
77574;BME280;66710;48.868;9.080;2024-02-04T02:08:32;99113.59;;;7.00;100.00
77574;BME280;66710;48.868;9.080;2024-02-04T02:11:19;99118.13;;;7.06;100.00
77574;BME280;66710;48.868;9.080;2024-02-04T02:13:50;99117.28;;;7.06;100.00
77574;BME280;66710;48.868;9.080;2024-02-04T02:16:18;99114.13;;;7.09;100.00
77574;BME280;66710;48.868;9.080;2024-02-04T02:18:58;99120.38;;;7.09;100.00
77574;BME280;66710;48.868;9.080;2024-02-04T02:22:02;99104.22;;;7.21;100.00
77574;BME280;66710;48.868;9.080;2024-02-04T02:24:38;99090.50;;;7.16;100.00
77574;BME280;66710;48.868;9.080;2024-02-04T02:27:04;99094.28;;;7.15;100.00
77574;BME280;66710;48.868;9.080;2024-02-04T02:29:31;99100.53;;;7.15;100.00
77574;BME280;66710;48.868;9.080;2024-02-04T02:31:58;99102.81;;;7.18;100.00
77574;BME280;66710;48.868;9.080;2024-02-04T02:34:24;99104.00;;;7.22;100.00
77574;BME280;66710;48.868;9.080;2024-02-04T02:36:59;99113.19;;;7.21;100.00
77574;BME280;66710;48.868;9.080;2024-02-04T02:39:31;99099.78;;;7.27;100.00
77574;BME280;66710;48.868;9.080;2024-02-04T02:41:59;99097.59;;;7.17;100.00
77574;BME280;66710;48.868;9.080;2024-02-04T02:44:28;99096.09;;;7.21;100.00
77574;BME280;66710;48.868;9.080;2024-02-04T02:46:57;99098.53;;;7.29;100.00
77574;BME280;66710;48.868;9.080;2024-02-04T02:49:23;99094.75;;;7.30;100.00
77574;BME280;66710;48.868;9.080;2024-02-04T02:51:48;99086.22;;;7.27;100.00
77574;BME280;66710;48.868;9.080;2024-02-04T02:54:14;99094.91;;;7.35;100.00
77574;BME280;66710;48.868;9.080;2024-02-04T02:56:39;99080.38;;;7.30;100.00
77574;BME280;66710;48.868;9.080;2024-02-04T02:59:04;99083.31;;;7.28;100.00
77574;BME280;66710;48.868;9.080;2024-02-04T03:01:30;99075.66;;;7.44;100.00
77574;BME280;66710;48.868;9.080;2024-02-04T03:03:55;99079.41;;;7.43;100.00
77574;BME280;66710;48.868;9.080;2024-02-04T03:06:21;99077.81;;;7.35;100.00
77574;BME280;66710;48.868;9.080;2024-02-04T03:08:46;99070.44;;;7.42;100.00
77574;BME280;66710;48.868;9.080;2024-02-04T03:11:12;99076.09;;;7.40;100.00
77574;BME280;66710;48.868;9.080;2024-02-04T03:13:40;99089.56;;;7.47;100.00
77574;BME280;66710;48.868;9.080;2024-02-04T03:16:12;99077.91;;;7.47;100.00
77574;BME280;66710;48.868;9.080;2024-02-04T03:18:41;99084.16;;;7.47;100.00
77574;BME280;66710;48.868;9.080;2024-02-04T03:21:13;99076.63;;;7.49;100.00
77574;BME280;66710;48.868;9.080;2024-02-04T03:23:41;99073.31;;;7.47;100.00
77574;BME280;66710;48.868;9.080;2024-02-04T03:26:06;99070.06;;;7.38;100.00
77574;BME280;66710;48.868;9.080;2024-02-04T03:28:32;99062.31;;;7.42;100.00
77574;BME280;66710;48.868;9.080;2024-02-04T03:30:57;99075.03;;;7.42;100.00
77574;BME280;66710;48.868;9.080;2024-02-04T03:33:22;99078.34;;;7.44;100.00
77574;BME280;66710;48.868;9.080;2024-02-04T03:35:48;99069.84;;;7.40;100.00
77574;BME280;66710;48.868;9.080;2024-02-04T03:38:13;99077.16;;;7.39;100.00
77574;BME280;66710;48.868;9.080;2024-02-04T03:40:38;99069.16;;;7.45;100.00
77574;BME280;66710;48.868;9.080;2024-02-04T03:43:07;99064.44;;;7.40;100.00
77574;BME280;66710;48.868;9.080;2024-02-04T03:45:33;99059.81;;;7.40;100.00
77574;BME280;66710;48.868;9.080;2024-02-04T03:47:58;99056.66;;;7.44;100.00
77574;BME280;66710;48.868;9.080;2024-02-04T03:50:23;99051.25;;;7.44;100.00
77574;BME280;66710;48.868;9.080;2024-02-04T03:52:48;99054.19;;;7.42;100.00
77574;BME280;66710;48.868;9.080;2024-02-04T03:55:14;99058.31;;;7.45;100.00
77574;BME280;66710;48.868;9.080;2024-02-04T03:57:39;99065.03;;;7.42;100.00
77574;BME280;66710;48.868;9.080;2024-02-04T04:00:06;99070.16;;;7.50;100.00
77574;BME280;66710;48.868;9.080;2024-02-04T04:02:32;99070.00;;;7.45;100.00
77574;BME280;66710;48.868;9.080;2024-02-04T04:04:57;99068.72;;;7.48;100.00
77574;BME280;66710;48.868;9.080;2024-02-04T04:07:22;99074.50;;;7.51;100.00
77574;BME280;66710;48.868;9.080;2024-02-04T04:09:48;99087.09;;;7.46;100.00
77574;BME280;66710;48.868;9.080;2024-02-04T04:12:13;99083.94;;;7.49;100.00
77574;BME280;66710;48.868;9.080;2024-02-04T04:14:38;99078.13;;;7.45;100.00
77574;BME280;66710;48.868;9.080;2024-02-04T04:17:03;99089.34;;;7.49;100.00
77574;BME280;66710;48.868;9.080;2024-02-04T04:19:29;99079.94;;;7.51;100.00
77574;BME280;66710;48.868;9.080;2024-02-04T04:21:54;99088.97;;;7.45;100.00
77574;BME280;66710;48.868;9.080;2024-02-04T04:24:19;99093.31;;;7.46;100.00
77574;BME280;66710;48.868;9.080;2024-02-04T04:26:47;99083.72;;;7.50;100.00
77574;BME280;66710;48.868;9.080;2024-02-04T04:29:12;99072.34;;;7.42;100.00
77574;BME280;66710;48.868;9.080;2024-02-04T04:31:37;99087.31;;;7.44;100.00
77574;BME280;66710;48.868;9.080;2024-02-04T04:34:03;99085.88;;;7.42;100.00
77574;BME280;66710;48.868;9.080;2024-02-04T04:36:28;99098.16;;;7.44;100.00
77574;BME280;66710;48.868;9.080;2024-02-04T04:38:53;99092.88;;;7.49;100.00
77574;BME280;66710;48.868;9.080;2024-02-04T04:41:18;99093.72;;;7.50;100.00
77574;BME280;66710;48.868;9.080;2024-02-04T04:43:44;99093.31;;;7.46;100.00
77574;BME280;66710;48.868;9.080;2024-02-04T04:46:09;99098.16;;;7.44;100.00
77574;BME280;66710;48.868;9.080;2024-02-04T04:48:34;99099.38;;;7.48;100.00
77574;BME280;66710;48.868;9.080;2024-02-04T04:51:00;99096.25;;;7.45;100.00
77574;BME280;66710;48.868;9.080;2024-02-04T04:53:25;99099.06;;;7.38;100.00
77574;BME280;66710;48.868;9.080;2024-02-04T04:55:50;99095.66;;;7.43;100.00
77574;BME280;66710;48.868;9.080;2024-02-04T04:58:15;99092.34;;;7.40;100.00
77574;BME280;66710;48.868;9.080;2024-02-04T05:00:41;99090.34;;;7.36;100.00
77574;BME280;66710;48.868;9.080;2024-02-04T05:03:06;99091.31;;;7.42;100.00
77574;BME280;66710;48.868;9.080;2024-02-04T05:05:31;99088.97;;;7.45;100.00
77574;BME280;66710;48.868;9.080;2024-02-04T05:07:56;99075.72;;;7.37;100.00
77574;BME280;66710;48.868;9.080;2024-02-04T05:10:22;99079.78;;;7.46;100.00
77574;BME280;66710;48.868;9.080;2024-02-04T05:12:47;99075.44;;;7.45;100.00
77574;BME280;66710;48.868;9.080;2024-02-04T05:15:12;99082.03;;;7.49;100.00
77574;BME280;66710;48.868;9.080;2024-02-04T05:17:38;99083.13;;;7.48;100.00
77574;BME280;66710;48.868;9.080;2024-02-04T05:20:03;99072.13;;;7.43;100.00
77574;BME280;66710;48.868;9.080;2024-02-04T05:22:29;99079.34;;;7.49;100.00
77574;BME280;66710;48.868;9.080;2024-02-04T05:24:55;99088.91;;;7.52;100.00
77574;BME280;66710;48.868;9.080;2024-02-04T05:27:20;99071.56;;;7.53;100.00
77574;BME280;66710;48.868;9.080;2024-02-04T05:29:45;99084.53;;;7.51;100.00
77574;BME280;66710;48.868;9.080;2024-02-04T05:32:11;99078.44;;;7.55;100.00
77574;BME280;66710;48.868;9.080;2024-02-04T05:34:37;99058.00;;;7.53;100.00
77574;BME280;66710;48.868;9.080;2024-02-04T05:37:02;99069.31;;;7.50;100.00
77574;BME280;66710;48.868;9.080;2024-02-04T05:39:28;99066.53;;;7.56;100.00
77574;BME280;66710;48.868;9.080;2024-02-04T05:41:53;99087.03;;;7.52;100.00
77574;BME280;66710;48.868;9.080;2024-02-04T05:44:18;99082.19;;;7.54;100.00
77574;BME280;66710;48.868;9.080;2024-02-04T05:46:44;99085.81;;;7.67;100.00
77574;BME280;66710;48.868;9.080;2024-02-04T05:49:09;99099.50;;;7.53;100.00
77574;BME280;66710;48.868;9.080;2024-02-04T05:51:41;99094.75;;;7.67;100.00
77574;BME280;66710;48.868;9.080;2024-02-04T05:54:07;99088.53;;;7.67;100.00
77574;BME280;66710;48.868;9.080;2024-02-04T05:56:32;99089.13;;;7.69;100.00
77574;BME280;66710;48.868;9.080;2024-02-04T05:58:58;99107.50;;;7.67;100.00
77574;BME280;66710;48.868;9.080;2024-02-04T06:01:23;99099.75;;;7.70;100.00
77574;BME280;66710;48.868;9.080;2024-02-04T06:03:48;99090.78;;;7.70;100.00
77574;BME280;66710;48.868;9.080;2024-02-04T06:06:15;99091.97;;;7.74;100.00
77574;BME280;66710;48.868;9.080;2024-02-04T06:08:41;99095.13;;;7.71;100.00
77574;BME280;66710;48.868;9.080;2024-02-04T06:11:10;99101.63;;;7.70;100.00
77574;BME280;66710;48.868;9.080;2024-02-04T06:13:35;99109.19;;;7.68;100.00
77574;BME280;66710;48.868;9.080;2024-02-04T06:16:00;99100.13;;;7.74;100.00
77574;BME280;66710;48.868;9.080;2024-02-04T06:18:26;99099.97;;;7.69;100.00
77574;BME280;66710;48.868;9.080;2024-02-04T06:20:51;99110.06;;;7.62;100.00
77574;BME280;66710;48.868;9.080;2024-02-04T06:23:16;99104.13;;;7.71;100.00
77574;BME280;66710;48.868;9.080;2024-02-04T06:25:43;99104.19;;;7.65;100.00
77574;BME280;66710;48.868;9.080;2024-02-04T06:28:08;99105.25;;;7.64;100.00
77574;BME280;66710;48.868;9.080;2024-02-04T06:30:33;99114.88;;;7.59;100.00
77574;BME280;66710;48.868;9.080;2024-02-04T06:32:59;99111.34;;;7.59;100.00
77574;BME280;66710;48.868;9.080;2024-02-04T06:35:24;99098.09;;;7.51;100.00
77574;BME280;66710;48.868;9.080;2024-02-04T06:37:49;99108.34;;;7.49;100.00
77574;BME280;66710;48.868;9.080;2024-02-04T06:40:14;99113.06;;;7.53;100.00
77574;BME280;66710;48.868;9.080;2024-02-04T06:42:40;99113.97;;;7.47;100.00
77574;BME280;66710;48.868;9.080;2024-02-04T06:45:05;99120.47;;;7.65;100.00
77574;BME280;66710;48.868;9.080;2024-02-04T06:47:31;99122.28;;;7.52;100.00
77574;BME280;66710;48.868;9.080;2024-02-04T06:49:56;99130.63;;;7.51;100.00
77574;BME280;66710;48.868;9.080;2024-02-04T06:52:21;99119.13;;;7.55;100.00
77574;BME280;66710;48.868;9.080;2024-02-04T06:54:46;99124.53;;;7.55;100.00
77574;BME280;66710;48.868;9.080;2024-02-04T06:57:12;99122.06;;;7.54;100.00
77574;BME280;66710;48.868;9.080;2024-02-04T06:59:37;99126.41;;;7.55;100.00
77574;BME280;66710;48.868;9.080;2024-02-04T07:02:02;99113.81;;;7.42;100.00
77574;BME280;66710;48.868;9.080;2024-02-04T07:04:28;99109.00;;;7.44;100.00
77574;BME280;66710;48.868;9.080;2024-02-04T07:06:53;99097.09;;;7.45;100.00
77574;BME280;66710;48.868;9.080;2024-02-04T07:09:18;99098.59;;;7.41;100.00
77574;BME280;66710;48.868;9.080;2024-02-04T07:11:44;99097.94;;;7.46;100.00
77574;BME280;66710;48.868;9.080;2024-02-04T07:14:09;99103.88;;;7.36;100.00
77574;BME280;66710;48.868;9.080;2024-02-04T07:16:34;99097.19;;;7.38;100.00
77574;BME280;66710;48.868;9.080;2024-02-04T07:19:00;99092.13;;;7.42;100.00
77574;BME280;66710;48.868;9.080;2024-02-04T07:21:25;99093.97;;;7.48;100.00
77574;BME280;66710;48.868;9.080;2024-02-04T07:23:51;99091.53;;;7.40;100.00
77574;BME280;66710;48.868;9.080;2024-02-04T07:26:16;99094.63;;;7.44;100.00
77574;BME280;66710;48.868;9.080;2024-02-04T07:28:41;99091.84;;;7.50;100.00
77574;BME280;66710;48.868;9.080;2024-02-04T07:31:07;99090.72;;;7.76;100.00
77574;BME280;66710;48.868;9.080;2024-02-04T07:33:32;99100.03;;;7.81;100.00
77574;BME280;66710;48.868;9.080;2024-02-04T07:35:57;99101.31;;;7.96;100.00
77574;BME280;66710;48.868;9.080;2024-02-04T07:38:23;99107.81;;;7.77;100.00
77574;BME280;66710;48.868;9.080;2024-02-04T07:40:48;99112.09;;;7.85;100.00
77574;BME280;66710;48.868;9.080;2024-02-04T07:43:13;99116.63;;;7.91;100.00
77574;BME280;66710;48.868;9.080;2024-02-04T07:45:38;99115.31;;;7.93;100.00
77574;BME280;66710;48.868;9.080;2024-02-04T07:48:04;99108.06;;;8.06;100.00
77574;BME280;66710;48.868;9.080;2024-02-04T07:50:29;99096.13;;;8.25;100.00
77574;BME280;66710;48.868;9.080;2024-02-04T07:52:55;99108.22;;;8.11;100.00
77574;BME280;66710;48.868;9.080;2024-02-04T07:55:20;99096.53;;;8.41;100.00
77574;BME280;66710;48.868;9.080;2024-02-04T07:57:45;99084.94;;;8.33;100.00
77574;BME280;66710;48.868;9.080;2024-02-04T08:00:11;99081.50;;;8.26;100.00
77574;BME280;66710;48.868;9.080;2024-02-04T08:02:36;99084.97;;;8.15;100.00
77574;BME280;66710;48.868;9.080;2024-02-04T08:05:03;99089.66;;;8.26;100.00
77574;BME280;66710;48.868;9.080;2024-02-04T08:07:29;99087.38;;;8.23;100.00
77574;BME280;66710;48.868;9.080;2024-02-04T08:09:54;99083.94;;;8.16;100.00
77574;BME280;66710;48.868;9.080;2024-02-04T08:12:20;99091.44;;;8.32;100.00
77574;BME280;66710;48.868;9.080;2024-02-04T08:14:45;99095.91;;;8.27;100.00
77574;BME280;66710;48.868;9.080;2024-02-04T08:17:10;99109.41;;;8.15;100.00
77574;BME280;66710;48.868;9.080;2024-02-04T08:19:35;99097.97;;;8.13;100.00
77574;BME280;66710;48.868;9.080;2024-02-04T08:22:01;99107.19;;;8.12;100.00
77574;BME280;66710;48.868;9.080;2024-02-04T08:24:26;99093.34;;;8.13;100.00
77574;BME280;66710;48.868;9.080;2024-02-04T08:26:52;99094.19;;;8.14;100.00
77574;BME280;66710;48.868;9.080;2024-02-04T08:29:18;99097.38;;;8.11;100.00
77574;BME280;66710;48.868;9.080;2024-02-04T08:31:43;99103.63;;;8.11;100.00
77574;BME280;66710;48.868;9.080;2024-02-04T08:34:08;99107.19;;;8.12;100.00
77574;BME280;66710;48.868;9.080;2024-02-04T08:36:34;99095.84;;;8.15;100.00
77574;BME280;66710;48.868;9.080;2024-02-04T08:38:59;99097.44;;;8.23;100.00
77574;BME280;66710;48.868;9.080;2024-02-04T08:41:24;99104.25;;;8.25;100.00
77574;BME280;66710;48.868;9.080;2024-02-04T08:43:50;99100.25;;;8.46;100.00
77574;BME280;66710;48.868;9.080;2024-02-04T08:46:15;99105.22;;;8.31;100.00
77574;BME280;66710;48.868;9.080;2024-02-04T08:48:43;99110.56;;;8.38;100.00
77574;BME280;66710;48.868;9.080;2024-02-04T08:51:12;99089.22;;;8.41;100.00
77574;BME280;66710;48.868;9.080;2024-02-04T08:53:38;99086.91;;;8.45;100.00
77574;BME280;66710;48.868;9.080;2024-02-04T08:56:05;99082.69;;;8.49;100.00
77574;BME280;66710;48.868;9.080;2024-02-04T08:58:31;99082.81;;;8.66;100.00
77574;BME280;66710;48.868;9.080;2024-02-04T09:00:56;99094.75;;;8.65;100.00
77574;BME280;66710;48.868;9.080;2024-02-04T09:03:21;99095.22;;;8.62;100.00
77574;BME280;66710;48.868;9.080;2024-02-04T09:05:47;99084.25;;;8.68;100.00
77574;BME280;66710;48.868;9.080;2024-02-04T09:08:12;99089.31;;;8.65;100.00
77574;BME280;66710;48.868;9.080;2024-02-04T09:10:37;99076.59;;;8.77;100.00
77574;BME280;66710;48.868;9.080;2024-02-04T09:13:03;99089.69;;;8.68;100.00
77574;BME280;66710;48.868;9.080;2024-02-04T09:15:28;99085.88;;;8.69;100.00
77574;BME280;66710;48.868;9.080;2024-02-04T09:17:53;99099.13;;;8.66;100.00
77574;BME280;66710;48.868;9.080;2024-02-04T09:20:18;99090.34;;;8.52;100.00
77574;BME280;66710;48.868;9.080;2024-02-04T09:22:44;99101.97;;;8.71;100.00
77574;BME280;66710;48.868;9.080;2024-02-04T09:25:09;99100.28;;;8.70;100.00
77574;BME280;66710;48.868;9.080;2024-02-04T09:27:34;99100.22;;;8.88;100.00
77574;BME280;66710;48.868;9.080;2024-02-04T09:30:00;99101.66;;;9.03;100.00
77574;BME280;66710;48.868;9.080;2024-02-04T09:32:25;99099.66;;;9.34;100.00
77574;BME280;66710;48.868;9.080;2024-02-04T09:34:50;99098.47;;;9.29;100.00
77574;BME280;66710;48.868;9.080;2024-02-04T09:37:15;99103.56;;;9.38;100.00
77574;BME280;66710;48.868;9.080;2024-02-04T09:39:41;99103.53;;;9.61;100.00
77574;BME280;66710;48.868;9.080;2024-02-04T09:42:07;99109.25;;;10.00;100.00
77574;BME280;66710;48.868;9.080;2024-02-04T09:44:32;99111.94;;;10.12;100.00
77574;BME280;66710;48.868;9.080;2024-02-04T09:46:58;99111.34;;;10.51;100.00
77574;BME280;66710;48.868;9.080;2024-02-04T09:49:27;99123.13;;;9.87;100.00
77574;BME280;66710;48.868;9.080;2024-02-04T09:51:52;99108.38;;;10.12;100.00
77574;BME280;66710;48.868;9.080;2024-02-04T09:54:18;99084.41;;;9.97;100.00
77574;BME280;66710;48.868;9.080;2024-02-04T09:56:43;99070.41;;;9.64;100.00
77574;BME280;66710;48.868;9.080;2024-02-04T09:59:09;99056.34;;;9.56;100.00
77574;BME280;66710;48.868;9.080;2024-02-04T10:01:35;99062.75;;;9.49;100.00
77574;BME280;66710;48.868;9.080;2024-02-04T10:04:00;99064.41;;;9.51;100.00
77574;BME280;66710;48.868;9.080;2024-02-04T10:06:25;99045.00;;;9.47;100.00
77574;BME280;66710;48.868;9.080;2024-02-04T10:08:51;99047.16;;;9.33;100.00
77574;BME280;66710;48.868;9.080;2024-02-04T10:11:16;99051.50;;;9.58;100.00
77574;BME280;66710;48.868;9.080;2024-02-04T10:13:46;99021.44;;;9.64;100.00
77574;BME280;66710;48.868;9.080;2024-02-04T10:16:12;99044.66;;;9.55;100.00
77574;BME280;66710;48.868;9.080;2024-02-04T10:18:41;99035.09;;;9.41;100.00
77574;BME280;66710;48.868;9.080;2024-02-04T10:21:15;99027.88;;;9.35;100.00
77574;BME280;66710;48.868;9.080;2024-02-04T10:23:41;99039.09;;;9.38;100.00
77574;BME280;66710;48.868;9.080;2024-02-04T10:26:06;99057.31;;;9.38;100.00
77574;BME280;66710;48.868;9.080;2024-02-04T10:28:31;99051.41;;;9.41;100.00
77574;BME280;66710;48.868;9.080;2024-02-04T10:30:57;99040.19;;;9.25;100.00
77574;BME280;66710;48.868;9.080;2024-02-04T10:33:22;99062.41;;;9.34;100.00
77574;BME280;66710;48.868;9.080;2024-02-04T10:35:47;99065.31;;;9.56;100.00
77574;BME280;66710;48.868;9.080;2024-02-04T10:38:12;99059.75;;;9.63;100.00
77574;BME280;66710;48.868;9.080;2024-02-04T10:40:38;99036.81;;;9.99;100.00
77574;BME280;66710;48.868;9.080;2024-02-04T10:43:04;99053.97;;;10.29;100.00
77574;BME280;66710;48.868;9.080;2024-02-04T10:45:32;99047.94;;;10.89;100.00
77574;BME280;66710;48.868;9.080;2024-02-04T10:48:00;99060.09;;;10.36;100.00
77574;BME280;66710;48.868;9.080;2024-02-04T10:50:27;99054.97;;;10.68;100.00
77574;BME280;66710;48.868;9.080;2024-02-04T10:52:54;99058.16;;;10.99;100.00
77574;BME280;66710;48.868;9.080;2024-02-04T10:55:27;99055.44;;;10.65;100.00
77574;BME280;66710;48.868;9.080;2024-02-04T10:57:54;99052.78;;;10.36;100.00
77574;BME280;66710;48.868;9.080;2024-02-04T11:00:20;99029.34;;;10.86;100.00
77574;BME280;66710;48.868;9.080;2024-02-04T11:02:46;99023.75;;;10.93;100.00
77574;BME280;66710;48.868;9.080;2024-02-04T11:05:12;99015.13;;;11.01;100.00
77574;BME280;66710;48.868;9.080;2024-02-04T11:07:39;99014.75;;;10.41;100.00
77574;BME280;66710;48.868;9.080;2024-02-04T11:10:05;99036.56;;;10.30;100.00
77574;BME280;66710;48.868;9.080;2024-02-04T11:12:33;99014.56;;;10.31;100.00
77574;BME280;66710;48.868;9.080;2024-02-04T11:15:03;99023.25;;;10.96;100.00
77574;BME280;66710;48.868;9.080;2024-02-04T11:23:34;99035.44;;;10.14;100.00
77574;BME280;66710;48.868;9.080;2024-02-04T11:26:03;99026.91;;;10.22;100.00
77574;BME280;66710;48.868;9.080;2024-02-04T11:28:31;99020.81;;;10.32;100.00
77574;BME280;66710;48.868;9.080;2024-02-04T11:30:56;99030.09;;;10.19;100.00
77574;BME280;66710;48.868;9.080;2024-02-04T11:33:22;99008.41;;;10.70;100.00
77574;BME280;66710;48.868;9.080;2024-02-04T11:36:14;98997.06;;;10.78;100.00
77574;BME280;66710;48.868;9.080;2024-02-04T11:38:40;98998.13;;;10.60;100.00
77574;BME280;66710;48.868;9.080;2024-02-04T11:41:07;98986.41;;;10.42;100.00
77574;BME280;66710;48.868;9.080;2024-02-04T11:43:33;99003.19;;;11.24;100.00
77574;BME280;66710;48.868;9.080;2024-02-04T11:46:03;98992.44;;;10.61;100.00
77574;BME280;66710;48.868;9.080;2024-02-04T11:48:35;98977.16;;;11.16;100.00
77574;BME280;66710;48.868;9.080;2024-02-04T11:51:03;98975.38;;;10.66;100.00
77574;BME280;66710;48.868;9.080;2024-02-04T11:53:29;98963.03;;;10.63;100.00
77574;BME280;66710;48.868;9.080;2024-02-04T11:56:00;98967.44;;;10.48;100.00
77574;BME280;66710;48.868;9.080;2024-02-04T11:58:27;98963.50;;;10.10;100.00
77574;BME280;66710;48.868;9.080;2024-02-04T12:00:52;98956.88;;;10.05;100.00
77574;BME280;66710;48.868;9.080;2024-02-04T12:03:28;98951.91;;;10.31;100.00
77574;BME280;66710;48.868;9.080;2024-02-04T12:05:54;98959.50;;;10.46;100.00
77574;BME280;66710;48.868;9.080;2024-02-04T12:08:20;98945.31;;;10.61;100.00
77574;BME280;66710;48.868;9.080;2024-02-04T12:10:46;98940.50;;;10.68;100.00
77574;BME280;66710;48.868;9.080;2024-02-04T12:13:12;98946.31;;;10.38;100.00
77574;BME280;66710;48.868;9.080;2024-02-04T12:15:38;98931.59;;;10.39;100.00
77574;BME280;66710;48.868;9.080;2024-02-04T12:18:11;98944.69;;;10.25;100.00
77574;BME280;66710;48.868;9.080;2024-02-04T12:20:37;98942.88;;;10.14;100.00
77574;BME280;66710;48.868;9.080;2024-02-04T12:23:04;98948.66;;;10.17;100.00
77574;BME280;66710;48.868;9.080;2024-02-04T12:25:29;98948.44;;;10.36;100.00
77574;BME280;66710;48.868;9.080;2024-02-04T12:27:58;98930.19;;;10.53;100.00
77574;BME280;66710;48.868;9.080;2024-02-04T12:30:23;98958.59;;;10.40;100.00
77574;BME280;66710;48.868;9.080;2024-02-04T12:33:05;98954.69;;;10.70;100.00
77574;BME280;66710;48.868;9.080;2024-02-04T12:35:31;98958.47;;;10.86;100.00
77574;BME280;66710;48.868;9.080;2024-02-04T12:37:58;98956.31;;;10.88;100.00
77574;BME280;66710;48.868;9.080;2024-02-04T12:40:25;98955.91;;;10.79;100.00
77574;BME280;66710;48.868;9.080;2024-02-04T12:43:01;98954.22;;;10.56;100.00
77574;BME280;66710;48.868;9.080;2024-02-04T12:45:27;98947.28;;;11.27;100.00
77574;BME280;66710;48.868;9.080;2024-02-04T12:47:55;98946.28;;;11.33;100.00
77574;BME280;66710;48.868;9.080;2024-02-04T12:50:21;98925.84;;;11.13;100.00
77574;BME280;66710;48.868;9.080;2024-02-04T12:52:47;98920.00;;;11.05;100.00
77574;BME280;66710;48.868;9.080;2024-02-04T12:55:39;98926.50;;;10.81;100.00
77574;BME280;66710;48.868;9.080;2024-02-04T12:58:09;98910.53;;;11.56;100.00
77574;BME280;66710;48.868;9.080;2024-02-04T13:00:37;98931.31;;;11.35;100.00